createdAt,value
2023-01-25T00:02:08.343Z,-0.49
2023-01-25T00:04:35.525Z,-0.46
2023-01-25T00:07:02.294Z,-0.41
2023-01-25T00:09:29.466Z,-0.38
2023-01-25T00:12:02.598Z,-0.35
2023-01-25T00:14:30.947Z,-0.31
2023-01-25T00:16:58.251Z,-0.25
2023-01-25T00:19:25.230Z,-0.20
2023-01-25T00:21:51.934Z,-0.24
2023-01-25T00:24:22.656Z,-0.23
2023-01-25T00:26:49.501Z,-0.25
2023-01-25T00:29:17.545Z,-0.24
2023-01-25T00:31:58.804Z,-0.26
2023-01-25T00:34:25.704Z,-0.29
2023-01-25T00:37:13.836Z,-0.30
2023-01-25T00:39:40.799Z,-0.36
2023-01-25T00:42:12.096Z,-0.41
2023-01-25T00:44:39.346Z,-0.43
2023-01-25T00:47:12.107Z,-0.42
2023-01-25T00:49:39.713Z,-0.39
2023-01-25T00:52:06.747Z,-0.34
2023-01-25T00:54:35.794Z,-0.31
2023-01-25T00:57:02.751Z,-0.31
2023-01-25T00:59:29.772Z,-0.32
2023-01-25T01:01:57.235Z,-0.36
2023-01-25T01:04:24.627Z,-0.40
2023-01-25T01:06:53.235Z,-0.43
2023-01-25T01:09:21.450Z,-0.45
2023-01-25T01:11:48.388Z,-0.48
2023-01-25T01:14:18.176Z,-0.50
2023-01-25T01:16:48.121Z,-0.48
2023-01-25T01:19:15.347Z,-0.48
2023-01-25T01:21:42.117Z,-0.47
2023-01-25T01:24:10.209Z,-0.42
2023-01-25T01:26:37.667Z,-0.40
2023-01-25T01:29:04.920Z,-0.39
2023-01-25T01:31:33.301Z,-0.39
2023-01-25T01:34:10.547Z,-0.43
2023-01-25T01:36:38.407Z,-0.48
2023-01-25T01:39:05.643Z,-0.50
2023-01-25T01:41:32.904Z,-0.52
2023-01-25T01:44:00.248Z,-0.50
2023-01-25T01:46:34.661Z,-0.45
2023-01-25T01:49:06.571Z,-0.46
2023-01-25T01:51:54.669Z,-0.47
2023-01-25T01:54:35.374Z,-0.48
2023-01-25T01:57:07.282Z,-0.54
2023-01-25T01:59:41.892Z,-0.62
2023-01-25T02:02:08.665Z,-0.69
2023-01-25T02:04:35.821Z,-0.68
2023-01-25T02:07:10.625Z,-0.66
2023-01-25T02:09:38.338Z,-0.63
2023-01-25T02:12:06.103Z,-0.60
2023-01-25T02:14:34.457Z,-0.58
2023-01-25T02:17:03.259Z,-0.59
2023-01-25T02:19:45.442Z,-0.62
2023-01-25T02:22:15.788Z,-0.68
2023-01-25T02:24:46.268Z,-0.73
2023-01-25T02:27:12.945Z,-0.79
2023-01-25T02:29:39.770Z,-0.84
2023-01-25T02:32:07.069Z,-0.90
2023-01-25T02:34:35.777Z,-0.92
2023-01-25T02:37:03.167Z,-0.90
2023-01-25T02:39:30.026Z,-0.84
2023-01-25T02:41:57.036Z,-0.74
2023-01-25T02:44:29.945Z,-0.65
2023-01-25T02:46:56.891Z,-0.59
2023-01-25T02:49:25.172Z,-0.59
2023-01-25T02:51:56.804Z,-0.57
2023-01-25T02:54:25.297Z,-0.56
2023-01-25T02:56:52.299Z,-0.59
2023-01-25T02:59:19.312Z,-0.65
2023-01-25T03:01:50.076Z,-0.68
2023-01-25T03:04:16.909Z,-0.71
2023-01-25T03:06:44.059Z,-0.71
2023-01-25T03:09:11.354Z,-0.67
2023-01-25T03:11:41.583Z,-0.60
2023-01-25T03:14:11.761Z,-0.55
2023-01-25T03:16:39.273Z,-0.50
2023-01-25T03:19:06.373Z,-0.45
2023-01-25T03:21:33.368Z,-0.43
2023-01-25T03:24:00.788Z,-0.44
2023-01-25T03:26:51.633Z,-0.46
2023-01-25T03:41:22.625Z,-0.52
2023-01-25T03:43:49.789Z,-0.50
2023-01-25T03:46:17.938Z,-0.47
2023-01-25T03:48:44.856Z,-0.41
2023-01-25T03:51:11.729Z,-0.36
2023-01-25T03:53:38.940Z,-0.32
2023-01-25T03:56:11.129Z,-0.31
2023-01-25T03:58:39.532Z,-0.33
2023-01-25T04:01:07.738Z,-0.38
2023-01-25T04:03:34.879Z,-0.37
2023-01-25T04:06:02.008Z,-0.37
2023-01-25T04:08:29.615Z,-0.34
2023-01-25T04:11:02.736Z,-0.30
2023-01-25T04:13:29.899Z,-0.27
2023-01-25T04:15:57.023Z,-0.29
2023-01-25T04:18:45.042Z,-0.35
2023-01-25T08:32:29.234Z,1.37
2023-01-25T08:35:18.881Z,1.47
2023-01-25T08:37:51.769Z,1.50
2023-01-25T08:40:40.238Z,1.48
2023-01-25T08:43:13.787Z,1.48
2023-01-25T09:43:04.290Z,1.62
2023-01-25T09:58:54.173Z,1.75
2023-01-25T10:37:20.557Z,2.01
2023-01-25T10:58:40.169Z,3.81
2023-01-25T11:26:55.116Z,5.34
2023-01-25T11:56:24.021Z,3.71
2023-01-25T11:59:49.893Z,3.71
2023-01-25T12:03:16.753Z,3.65
2023-01-25T12:51:50.587Z,4.44
2023-01-25T12:54:38.364Z,4.32
2023-01-25T12:58:23.856Z,4.29
